Shaitan — FAC9887 — position and weather

sailwx.info

Track history (hours):
 
Tides and Currents Weather Stations Pressure Air Temp Water Temp Dewpoint Dewpoint Depression Visibility Wind Speed Wind Dir Waves Ship Positions

Shaitan

Last reported at 2018-Jun-17 11:19 UTC. Time now 2018-Jun-23 13:58 UTC.
Position N 50°46' W 001°24'.

Type: Pleasure craft. MMSI: 227367960.

Date/timePositionNaut miles runAvg speedWind from/ knotsBaromVisibWave heightAir tempDewpointWater temp
2018-Jun-17 11:19N 50°46' W 001°24'2 4.8
2018-Jun-17 10:58N 50°47' W 001°22'2 4.0
2018-Jun-17 10:28N 50°46' W 001°18'1 1.8
2018-Jun-17 10:00N 50°46' W 001°18'0 0.0
2018-Jun-16 15:19N 50°46' W 001°18'0 0.0
2018-Jun-16 14:58N 50°46' W 001°18'1 1.8
2018-Jun-16 14:29N 50°46' W 001°19'2 5.0
2018-Jun-16 14:00N 50°48' W 001°16'3 5.1
2018-Jun-16 13:28N 50°47' W 001°12'1 2.8
2018-Jun-16 13:00N 50°46' W 001°12'2 4.3
2018-Jun-16 12:30N 50°46' W 001°09'4 7.5
2018-Jun-16 12:00N 50°47' W 001°14'1 1.3
2018-Jun-16 11:28N 50°48' W 001°14'1 1.7
2018-Jun-16 10:59N 50°47' W 001°14'1 1.1
2018-Jun-16 10:30N 50°47' W 001°14'1 1.2
2018-Jun-16 10:00N 50°48' W 001°14'0 0.5
2018-Jun-16 09:30N 50°47' W 001°14'3 6.0
2018-Jun-16 09:00N 50°46' W 001°18'0 0.0
2018-Jun-15 15:33N 50°46' W 001°18'0 0.0
2018-Jun-15 15:30N 50°46' W 001°18'0 0.0
2018-Jun-15 15:00N 50°46' W 001°18'1 1.0
2018-Jun-15 14:26N 50°46' W 001°18'3 5.9
2018-Jun-15 14:00N 50°48' W 001°15'0 0.2
2018-Jun-15 13:28N 50°48' W 001°15'1 1.1
2018-Jun-15 12:59N 50°48' W 001°15'0 0.5
2018-Jun-15 12:30N 50°48' W 001°15'1 1.1
2018-Jun-15 11:58N 50°48' W 001°15'1 1.2
2018-Jun-15 11:28N 50°49' W 001°15'0 0.6
2018-Jun-15 11:00N 50°48' W 001°15'3 5.6
2018-Jun-15 10:30N 50°46' W 001°18'0 0.6
2018-Jun-15 09:46N 50°46' W 001°18'0 0.0
2018-Jun-15 09:25N 50°46' W 001°18'0 0.0
2018-Jun-15 08:58N 50°46' W 001°18'0 0.0
2018-Jun-14 17:15N 50°46' W 001°18'0 0.0
2018-Jun-14 16:57N 50°46' W 001°18'1 3.1
2018-Jun-14 16:29N 50°47' W 001°17'3 6.6
2018-Jun-14 16:00N 50°46' W 001°12'3 6.1
2018-Jun-14 15:30N 50°45' W 001°07'3 5.4
2018-Jun-14 15:00N 50°43' W 001°04'9 1.4
2018-Jun-14 08:13N 50°46' W 001°18'0 0.4
2018-Jun-14 07:59N 50°46' W 001°18'1 1.2
2018-Jun-14 07:30N 50°46' W 001°18'0 0.2
2018-Jun-14 07:00N 50°46' W 001°18'0 0.0
2018-Jun-13 16:07N 50°46' W 001°18'0 0.0
2018-Jun-13 15:58N 50°46' W 001°18'0 0.0
2018-Jun-13 15:28N 50°46' W 001°18'0 0.1
2018-Jun-13 10:11N 50°46' W 001°18'0 1.9
2018-Jun-13 09:58N 50°46' W 001°18'0 0.0
2018-Jun-12 15:34N 50°46' W 001°18'0 0.0
2018-Jun-12 15:28N 50°46' W 001°18'2 3.5
2018-Jun-12 15:00N 50°47' W 001°16'1 1.0
2018-Jun-12 14:28N 50°47' W 001°15'1 1.3
2018-Jun-12 13:59N 50°47' W 001°14'1 1.3
2018-Jun-12 13:27N 50°47' W 001°15'1 0.8
2018-Jun-12 12:37N 50°46' W 001°15'0 3.5
2018-Jun-12 12:29N 50°46' W 001°14'1 2.0
2018-Jun-12 12:00N 50°47' W 001°15'2 3.0
2018-Jun-12 11:29N 50°48' W 001°16'1 1.9
2018-Jun-12 10:53N 50°48' W 001°17'1 3.4
2018-Jun-12 10:30N 50°46' W 001°17'0 0.6
2018-Jun-12 10:00N 50°46' W 001°18'0 0.6
2018-Jun-12 09:30N 50°46' W 001°17'0 0.6
2018-Jun-12 08:59N 50°46' W 001°17'1 1.4
2018-Jun-12 08:29N 50°46' W 001°18'0 0.0
2018-Jun-11 17:28N 50°46' W 001°18'1 1.5
2018-Jun-11 17:00N 50°46' W 001°18'1 2.0
2018-Jun-11 16:26N 50°46' W 001°16'1 2.8
2018-Jun-11 15:57N 50°47' W 001°18'1 1.0
2018-Jun-11 15:23N 50°47' W 001°18'1 1.7
2018-Jun-11 14:57N 50°46' W 001°18'1 1.9
2018-Jun-11 14:30N 50°47' W 001°17'0 0.5
2018-Jun-11 13:38N 50°47' W 001°18'0 1.2
2018-Jun-11 13:30N 50°47' W 001°18'0 0.3
2018-Jun-11 12:56N 50°47' W 001°18'2 3.9
2018-Jun-11 12:30N 50°46' W 001°18'0 0.0
2018-Jun-11 11:58N 50°46' W 001°18'0 0.0
2018-Jun-11 11:28N 50°46' W 001°18'0 0.0
2018-Jun-11 10:55N 50°46' W 001°18'2 4.1
2018-Jun-11 10:25N 50°47' W 001°15'1 2.3
2018-Jun-11 09:59N 50°47' W 001°13'1 1.2
2018-Jun-11 09:23N 50°46' W 001°14'1 3.0
2018-Jun-11 08:56N 50°46' W 001°16'1 1.9
2018-Jun-11 08:17N 50°46' W 001°18'0 0.2
2018-Jun-11 07:56N 50°46' W 001°18'1 1.5
2018-Jun-11 07:29N 50°46' W 001°18'0 0.0
2018-Jun-10 14:07N 50°46' W 001°18'0 0.0
2018-Jun-10 13:28N 50°46' W 001°18'0 0.0
2018-Jun-10 12:55N 50°46' W 001°18'2 2.2
2018-Jun-10 12:02N 50°47' W 001°15'1 1.2
2018-Jun-10 11:33N 50°47' W 001°15'0 2.6
2018-Jun-10 11:30N 50°47' W 001°15'0 0.3
2018-Jun-10 10:56N 50°47' W 001°15'1 1.4
2018-Jun-10 10:26N 50°47' W 001°15'0 0.4
2018-Jun-10 09:58N 50°47' W 001°15'0 1.0
2018-Jun-10 09:30N 50°47' W 001°16'0 0.9
2018-Jun-10 09:00N 50°47' W 001°16'2 3.4
2018-Jun-10 08:28N 50°46' W 001°18'0 0.0
2018-Jun-09 16:39N 50°46' W 001°18'0 0.0
2018-Jun-09 16:18N 50°46' W 001°18'0 0.0
2018-Jun-09 15:57N 50°46' W 001°18'0 0.0
2018-Jun-09 14:42N 50°46' W 001°18'0 2.2
2018-Jun-09 14:30N 50°46' W 001°18'3 5.1
2018-Jun-09 14:00N 50°46' W 001°14'1 1.0
2018-Jun-09 13:30N 50°46' W 001°13'1 2.2
2018-Jun-09 13:00N 50°47' W 001°13'1 2.4
2018-Jun-09 12:30N 50°46' W 001°13'2 3.2
2018-Jun-09 11:56N 50°47' W 001°16'1 3.3
2018-Jun-09 11:30N 50°46' W 001°18'1 1.1
2018-Jun-09 10:59N 50°46' W 001°18'0 0.0
2018-Jun-09 10:29N 50°46' W 001°18'0 0.0
2018-Jun-09 09:59N 50°46' W 001°18'0 0.0
2018-Jun-08 14:36N 50°46' W 001°18'0 0.0
2018-Jun-08 14:30N 50°46' W 001°18'0 0.0
2018-Jun-08 13:57N 50°46' W 001°18'0 0.0
2018-Jun-08 13:27N 50°46' W 001°18'0 0.0
2018-Jun-08 13:00N 50°46' W 001°18'0 0.0
2018-Jun-08 12:27N 50°46' W 001°18'1 2.1
2018-Jun-08 11:56N 50°47' W 001°18'  
Track history (hours):
 
Tides and Currents Weather Stations Pressure Air Temp Water Temp Dewpoint Dewpoint Depression Visibility Wind Speed Wind Dir Waves Ship Positions

Shaitan

Last reported at 2018-Jun-17 11:19 UTC. Time now 2018-Jun-23 13:58 UTC.
Position N 50°46' W 001°24'.

Type: Pleasure craft. MMSI: 227367960.

Date/timePositionNaut miles runAvg speedWind from/ knotsBaromVisibWave heightAir tempDewpointWater temp
2018-Jun-17 11:19N 50°46' W 001°24'2 4.8
2018-Jun-17 10:58N 50°47' W 001°22'2 4.0
2018-Jun-17 10:28N 50°46' W 001°18'1 1.8
2018-Jun-17 10:00N 50°46' W 001°18'0 0.0
2018-Jun-16 15:19N 50°46' W 001°18'0 0.0
2018-Jun-16 14:58N 50°46' W 001°18'1 1.8
2018-Jun-16 14:29N 50°46' W 001°19'2 5.0
2018-Jun-16 14:00N 50°48' W 001°16'3 5.1
2018-Jun-16 13:28N 50°47' W 001°12'1 2.8
2018-Jun-16 13:00N 50°46' W 001°12'2 4.3
2018-Jun-16 12:30N 50°46' W 001°09'4 7.5
2018-Jun-16 12:00N 50°47' W 001°14'1 1.3
2018-Jun-16 11:28N 50°48' W 001°14'1 1.7
2018-Jun-16 10:59N 50°47' W 001°14'1 1.1
2018-Jun-16 10:30N 50°47' W 001°14'1 1.2
2018-Jun-16 10:00N 50°48' W 001°14'0 0.5
2018-Jun-16 09:30N 50°47' W 001°14'3 6.0
2018-Jun-16 09:00N 50°46' W 001°18'0 0.0
2018-Jun-15 15:33N 50°46' W 001°18'0 0.0
2018-Jun-15 15:30N 50°46' W 001°18'0 0.0
2018-Jun-15 15:00N 50°46' W 001°18'1 1.0
2018-Jun-15 14:26N 50°46' W 001°18'3 5.9
2018-Jun-15 14:00N 50°48' W 001°15'0 0.2
2018-Jun-15 13:28N 50°48' W 001°15'1 1.1
2018-Jun-15 12:59N 50°48' W 001°15'0 0.5
2018-Jun-15 12:30N 50°48' W 001°15'1 1.1
2018-Jun-15 11:58N 50°48' W 001°15'1 1.2
2018-Jun-15 11:28N 50°49' W 001°15'0 0.6
2018-Jun-15 11:00N 50°48' W 001°15'3 5.6
2018-Jun-15 10:30N 50°46' W 001°18'0 0.6
2018-Jun-15 09:46N 50°46' W 001°18'0 0.0
2018-Jun-15 09:25N 50°46' W 001°18'0 0.0
2018-Jun-15 08:58N 50°46' W 001°18'0 0.0
2018-Jun-14 17:15N 50°46' W 001°18'0 0.0
2018-Jun-14 16:57N 50°46' W 001°18'1 3.1
2018-Jun-14 16:29N 50°47' W 001°17'3 6.6
2018-Jun-14 16:00N 50°46' W 001°12'3 6.1
2018-Jun-14 15:30N 50°45' W 001°07'3 5.4
2018-Jun-14 15:00N 50°43' W 001°04'9 1.4
2018-Jun-14 08:13N 50°46' W 001°18'0 0.4
2018-Jun-14 07:59N 50°46' W 001°18'1 1.2
2018-Jun-14 07:30N 50°46' W 001°18'0 0.2
2018-Jun-14 07:00N 50°46' W 001°18'0 0.0
2018-Jun-13 16:07N 50°46' W 001°18'0 0.0
2018-Jun-13 15:58N 50°46' W 001°18'0 0.0
2018-Jun-13 15:28N 50°46' W 001°18'0 0.1
2018-Jun-13 10:11N 50°46' W 001°18'0 1.9
2018-Jun-13 09:58N 50°46' W 001°18'0 0.0
2018-Jun-12 15:34N 50°46' W 001°18'0 0.0
2018-Jun-12 15:28N 50°46' W 001°18'2 3.5
2018-Jun-12 15:00N 50°47' W 001°16'1 1.0
2018-Jun-12 14:28N 50°47' W 001°15'1 1.3
2018-Jun-12 13:59N 50°47' W 001°14'1 1.3
2018-Jun-12 13:27N 50°47' W 001°15'1 0.8
2018-Jun-12 12:37N 50°46' W 001°15'0 3.5
2018-Jun-12 12:29N 50°46' W 001°14'1 2.0
2018-Jun-12 12:00N 50°47' W 001°15'2 3.0
2018-Jun-12 11:29N 50°48' W 001°16'1 1.9
2018-Jun-12 10:53N 50°48' W 001°17'1 3.4
2018-Jun-12 10:30N 50°46' W 001°17'0 0.6
2018-Jun-12 10:00N 50°46' W 001°18'0 0.6
2018-Jun-12 09:30N 50°46' W 001°17'0 0.6
2018-Jun-12 08:59N 50°46' W 001°17'1 1.4
2018-Jun-12 08:29N 50°46' W 001°18'0 0.0
2018-Jun-11 17:28N 50°46' W 001°18'1 1.5
2018-Jun-11 17:00N 50°46' W 001°18'1 2.0
2018-Jun-11 16:26N 50°46' W 001°16'1 2.8
2018-Jun-11 15:57N 50°47' W 001°18'1 1.0
2018-Jun-11 15:23N 50°47' W 001°18'1 1.7
2018-Jun-11 14:57N 50°46' W 001°18'1 1.9
2018-Jun-11 14:30N 50°47' W 001°17'0 0.5
2018-Jun-11 13:38N 50°47' W 001°18'0 1.2
2018-Jun-11 13:30N 50°47' W 001°18'0 0.3
2018-Jun-11 12:56N 50°47' W 001°18'2 3.9
2018-Jun-11 12:30N 50°46' W 001°18'0 0.0
2018-Jun-11 11:58N 50°46' W 001°18'0 0.0
2018-Jun-11 11:28N 50°46' W 001°18'0 0.0
2018-Jun-11 10:55N 50°46' W 001°18'2 4.1
2018-Jun-11 10:25N 50°47' W 001°15'1 2.3
2018-Jun-11 09:59N 50°47' W 001°13'1 1.2
2018-Jun-11 09:23N 50°46' W 001°14'1 3.0
2018-Jun-11 08:56N 50°46' W 001°16'1 1.9
2018-Jun-11 08:17N 50°46' W 001°18'0 0.2
2018-Jun-11 07:56N 50°46' W 001°18'1 1.5
2018-Jun-11 07:29N 50°46' W 001°18'0 0.0
2018-Jun-10 14:07N 50°46' W 001°18'0 0.0
2018-Jun-10 13:28N 50°46' W 001°18'0 0.0
2018-Jun-10 12:55N 50°46' W 001°18'2 2.2
2018-Jun-10 12:02N 50°47' W 001°15'1 1.2
2018-Jun-10 11:33N 50°47' W 001°15'0 2.6
2018-Jun-10 11:30N 50°47' W 001°15'0 0.3
2018-Jun-10 10:56N 50°47' W 001°15'1 1.4
2018-Jun-10 10:26N 50°47' W 001°15'0 0.4
2018-Jun-10 09:58N 50°47' W 001°15'0 1.0
2018-Jun-10 09:30N 50°47' W 001°16'0 0.9
2018-Jun-10 09:00N 50°47' W 001°16'2 3.4
2018-Jun-10 08:28N 50°46' W 001°18'0 0.0
2018-Jun-09 16:39N 50°46' W 001°18'0 0.0
2018-Jun-09 16:18N 50°46' W 001°18'0 0.0
2018-Jun-09 15:57N 50°46' W 001°18'0 0.0
2018-Jun-09 14:42N 50°46' W 001°18'0 2.2
2018-Jun-09 14:30N 50°46' W 001°18'3 5.1
2018-Jun-09 14:00N 50°46' W 001°14'1 1.0
2018-Jun-09 13:30N 50°46' W 001°13'1 2.2
2018-Jun-09 13:00N 50°47' W 001°13'1 2.4
2018-Jun-09 12:30N 50°46' W 001°13'2 3.2
2018-Jun-09 11:56N 50°47' W 001°16'1 3.3
2018-Jun-09 11:30N 50°46' W 001°18'1 1.1
2018-Jun-09 10:59N 50°46' W 001°18'0 0.0
2018-Jun-09 10:29N 50°46' W 001°18'0 0.0
2018-Jun-09 09:59N 50°46' W 001°18'0 0.0
2018-Jun-08 14:36N 50°46' W 001°18'0 0.0
2018-Jun-08 14:30N 50°46' W 001°18'0 0.0
2018-Jun-08 13:57N 50°46' W 001°18'0 0.0
2018-Jun-08 13:27N 50°46' W 001°18'0 0.0
2018-Jun-08 13:00N 50°46' W 001°18'0 0.0
2018-Jun-08 12:27N 50°46' W 001°18'1 2.1
2018-Jun-08 11:56N 50°47' W 001°18'  

Dump ship's entire track history